sensor_id;sensor_type;location;lat;lon;timestamp;temperature;humidity
20376;DHT22;10347;51.828;6.466;2023-04-29T00:00:40;12.90;99.90
20376;DHT22;10347;51.828;6.466;2023-04-29T00:03:05;13.00;99.90
20376;DHT22;10347;51.828;6.466;2023-04-29T00:05:31;13.00;99.90
20376;DHT22;10347;51.828;6.466;2023-04-29T00:07:56;13.00;99.90
20376;DHT22;10347;51.828;6.466;2023-04-29T00:10:22;13.00;99.90
20376;DHT22;10347;51.828;6.466;2023-04-29T00:12:48;13.00;99.90
20376;DHT22;10347;51.828;6.466;2023-04-29T00:15:16;13.00;99.90
20376;DHT22;10347;51.828;6.466;2023-04-29T00:17:41;13.00;99.90
20376;DHT22;10347;51.828;6.466;2023-04-29T00:20:07;12.90;99.90
20376;DHT22;10347;51.828;6.466;2023-04-29T00:22:33;12.80;99.90
20376;DHT22;10347;51.828;6.466;2023-04-29T00:24:58;12.80;99.90
20376;DHT22;10347;51.828;6.466;2023-04-29T00:27:24;12.80;99.90
20376;DHT22;10347;51.828;6.466;2023-04-29T00:29:50;12.80;99.90
20376;DHT22;10347;51.828;6.466;2023-04-29T00:32:15;12.60;99.90
20376;DHT22;10347;51.828;6.466;2023-04-29T00:34:41;12.60;99.90
20376;DHT22;10347;51.828;6.466;2023-04-29T00:37:07;12.60;99.90
20376;DHT22;10347;51.828;6.466;2023-04-29T00:39:32;12.60;99.90
20376;DHT22;10347;51.828;6.466;2023-04-29T00:41:58;12.80;99.90
20376;DHT22;10347;51.828;6.466;2023-04-29T00:44:24;12.70;99.90
20376;DHT22;10347;51.828;6.466;2023-04-29T00:46:49;12.60;99.90
20376;DHT22;10347;51.828;6.466;2023-04-29T00:49:15;12.60;99.90
20376;DHT22;10347;51.828;6.466;2023-04-29T00:51:41;12.60;99.90
20376;DHT22;10347;51.828;6.466;2023-04-29T00:54:07;12.60;99.90
20376;DHT22;10347;51.828;6.466;2023-04-29T00:56:34;12.60;99.90
20376;DHT22;10347;51.828;6.466;2023-04-29T00:59:01;12.60;99.90
20376;DHT22;10347;51.828;6.466;2023-04-29T01:01:29;12.50;99.90
20376;DHT22;10347;51.828;6.466;2023-04-29T01:03:55;12.40;99.90
20376;DHT22;10347;51.828;6.466;2023-04-29T01:14:32;12.30;99.90
20376;DHT22;10347;51.828;6.466;2023-04-29T01:16:59;12.40;99.90
20376;DHT22;10347;51.828;6.466;2023-04-29T01:22:11;12.40;99.90
20376;DHT22;10347;51.828;6.466;2023-04-29T01:24:39;12.40;99.90
20376;DHT22;10347;51.828;6.466;2023-04-29T01:27:16;12.30;99.90
20376;DHT22;10347;51.828;6.466;2023-04-29T01:29:54;12.30;99.90
20376;DHT22;10347;51.828;6.466;2023-04-29T01:41:00;12.30;99.90
20376;DHT22;10347;51.828;6.466;2023-04-29T01:43:31;12.20;99.90
20376;DHT22;10347;51.828;6.466;2023-04-29T01:45:58;12.10;99.90
20376;DHT22;10347;51.828;6.466;2023-04-29T01:48:25;12.20;99.90
20376;DHT22;10347;51.828;6.466;2023-04-29T01:50:51;12.20;99.90
20376;DHT22;10347;51.828;6.466;2023-04-29T01:53:16;12.20;99.90
20376;DHT22;10347;51.828;6.466;2023-04-29T01:55:42;12.20;99.90
20376;DHT22;10347;51.828;6.466;2023-04-29T01:58:09;12.20;99.90
20376;DHT22;10347;51.828;6.466;2023-04-29T02:00:35;12.10;99.90
20376;DHT22;10347;51.828;6.466;2023-04-29T02:03:02;12.10;99.90
20376;DHT22;10347;51.828;6.466;2023-04-29T02:05:27;12.10;99.90
20376;DHT22;10347;51.828;6.466;2023-04-29T02:07:56;12.10;99.90
20376;DHT22;10347;51.828;6.466;2023-04-29T02:10:22;12.10;99.90
20376;DHT22;10347;51.828;6.466;2023-04-29T02:12:47;12.10;99.90
20376;DHT22;10347;51.828;6.466;2023-04-29T02:15:13;12.10;99.90
20376;DHT22;10347;51.828;6.466;2023-04-29T02:17:38;12.00;99.90
20376;DHT22;10347;51.828;6.466;2023-04-29T02:20:04;12.10;99.90
20376;DHT22;10347;51.828;6.466;2023-04-29T02:22:30;12.00;99.90
20376;DHT22;10347;51.828;6.466;2023-04-29T02:24:56;12.00;99.90
20376;DHT22;10347;51.828;6.466;2023-04-29T02:27:22;12.00;99.90
20376;DHT22;10347;51.828;6.466;2023-04-29T02:29:48;12.00;99.90
20376;DHT22;10347;51.828;6.466;2023-04-29T02:32:14;12.00;99.90
20376;DHT22;10347;51.828;6.466;2023-04-29T02:34:40;12.00;99.90
20376;DHT22;10347;51.828;6.466;2023-04-29T02:37:05;12.00;99.90
20376;DHT22;10347;51.828;6.466;2023-04-29T02:39:31;12.10;99.90
20376;DHT22;10347;51.828;6.466;2023-04-29T02:41:56;12.10;99.90
20376;DHT22;10347;51.828;6.466;2023-04-29T02:44:22;12.10;99.90
20376;DHT22;10347;51.828;6.466;2023-04-29T02:46:48;12.10;99.90
20376;DHT22;10347;51.828;6.466;2023-04-29T02:49:13;12.10;99.90
20376;DHT22;10347;51.828;6.466;2023-04-29T02:51:39;12.10;99.90
20376;DHT22;10347;51.828;6.466;2023-04-29T02:54:05;12.00;99.90
20376;DHT22;10347;51.828;6.466;2023-04-29T02:56:31;12.00;99.90
20376;DHT22;10347;51.828;6.466;2023-04-29T02:58:57;12.10;99.90
20376;DHT22;10347;51.828;6.466;2023-04-29T03:01:22;12.10;99.90
20376;DHT22;10347;51.828;6.466;2023-04-29T03:03:48;12.00;99.90
20376;DHT22;10347;51.828;6.466;2023-04-29T03:06:14;12.10;99.90
20376;DHT22;10347;51.828;6.466;2023-04-29T03:08:40;12.10;99.90
20376;DHT22;10347;51.828;6.466;2023-04-29T03:11:05;12.10;99.90
20376;DHT22;10347;51.828;6.466;2023-04-29T03:13:31;12.10;99.90
20376;DHT22;10347;51.828;6.466;2023-04-29T03:15:56;12.10;99.90
20376;DHT22;10347;51.828;6.466;2023-04-29T03:18:24;12.10;99.90
20376;DHT22;10347;51.828;6.466;2023-04-29T03:20:50;12.10;99.90
20376;DHT22;10347;51.828;6.466;2023-04-29T03:23:15;12.10;99.90
20376;DHT22;10347;51.828;6.466;2023-04-29T03:25:41;12.10;99.90
20376;DHT22;10347;51.828;6.466;2023-04-29T03:28:06;12.10;99.90
20376;DHT22;10347;51.828;6.466;2023-04-29T03:30:32;12.10;99.90
20376;DHT22;10347;51.828;6.466;2023-04-29T03:32:57;12.10;99.90
20376;DHT22;10347;51.828;6.466;2023-04-29T03:35:23;12.10;99.90
20376;DHT22;10347;51.828;6.466;2023-04-29T03:37:48;12.10;99.90
20376;DHT22;10347;51.828;6.466;2023-04-29T03:40:14;12.10;99.90
20376;DHT22;10347;51.828;6.466;2023-04-29T03:42:40;12.20;99.90
20376;DHT22;10347;51.828;6.466;2023-04-29T03:45:06;12.20;99.90
20376;DHT22;10347;51.828;6.466;2023-04-29T03:47:32;12.10;99.90
20376;DHT22;10347;51.828;6.466;2023-04-29T03:49:57;12.10;99.90
20376;DHT22;10347;51.828;6.466;2023-04-29T03:52:23;12.10;99.90
20376;DHT22;10347;51.828;6.466;2023-04-29T03:54:48;12.10;99.90
20376;DHT22;10347;51.828;6.466;2023-04-29T03:57:14;12.10;99.90
20376;DHT22;10347;51.828;6.466;2023-04-29T03:59:39;12.10;99.90
20376;DHT22;10347;51.828;6.466;2023-04-29T04:02:05;12.10;99.90
20376;DHT22;10347;51.828;6.466;2023-04-29T04:04:31;12.10;99.90
20376;DHT22;10347;51.828;6.466;2023-04-29T04:06:57;12.10;99.90
20376;DHT22;10347;51.828;6.466;2023-04-29T04:09:22;12.10;99.90
20376;DHT22;10347;51.828;6.466;2023-04-29T04:11:48;12.10;99.90
20376;DHT22;10347;51.828;6.466;2023-04-29T04:14:14;12.10;99.90
20376;DHT22;10347;51.828;6.466;2023-04-29T04:16:39;12.10;99.90
20376;DHT22;10347;51.828;6.466;2023-04-29T04:19:05;12.10;99.90
20376;DHT22;10347;51.828;6.466;2023-04-29T04:21:30;12.10;99.90
20376;DHT22;10347;51.828;6.466;2023-04-29T04:23:56;12.00;99.90
20376;DHT22;10347;51.828;6.466;2023-04-29T04:26:22;12.00;99.90
20376;DHT22;10347;51.828;6.466;2023-04-29T04:28:47;12.00;99.90
20376;DHT22;10347;51.828;6.466;2023-04-29T04:31:13;12.00;99.90
20376;DHT22;10347;51.828;6.466;2023-04-29T04:33:39;11.90;99.90
20376;DHT22;10347;51.828;6.466;2023-04-29T04:36:05;11.90;99.90
20376;DHT22;10347;51.828;6.466;2023-04-29T04:38:31;12.00;99.90
20376;DHT22;10347;51.828;6.466;2023-04-29T04:40:57;11.90;99.90
20376;DHT22;10347;51.828;6.466;2023-04-29T04:43:23;11.90;99.90
20376;DHT22;10347;51.828;6.466;2023-04-29T04:45:48;11.90;99.90
20376;DHT22;10347;51.828;6.466;2023-04-29T04:48:14;12.00;99.90
20376;DHT22;10347;51.828;6.466;2023-04-29T04:50:39;11.90;99.90
20376;DHT22;10347;51.828;6.466;2023-04-29T04:53:05;11.90;99.90
20376;DHT22;10347;51.828;6.466;2023-04-29T04:55:31;11.90;99.90
20376;DHT22;10347;51.828;6.466;2023-04-29T04:57:58;11.90;99.90
20376;DHT22;10347;51.828;6.466;2023-04-29T05:00:23;11.90;99.90
20376;DHT22;10347;51.828;6.466;2023-04-29T05:02:49;11.90;99.90
20376;DHT22;10347;51.828;6.466;2023-04-29T05:05:14;11.90;99.90
20376;DHT22;10347;51.828;6.466;2023-04-29T05:07:40;11.90;99.90
20376;DHT22;10347;51.828;6.466;2023-04-29T05:10:06;11.90;99.90
20376;DHT22;10347;51.828;6.466;2023-04-29T05:12:32;11.90;99.90
20376;DHT22;10347;51.828;6.466;2023-04-29T05:14:59;11.90;99.90
20376;DHT22;10347;51.828;6.466;2023-04-29T05:17:25;11.90;99.90
20376;DHT22;10347;51.828;6.466;2023-04-29T05:19:51;11.90;99.90
20376;DHT22;10347;51.828;6.466;2023-04-29T05:22:16;11.90;99.90
20376;DHT22;10347;51.828;6.466;2023-04-29T05:24:42;11.90;99.90
20376;DHT22;10347;51.828;6.466;2023-04-29T05:27:07;11.90;99.90
20376;DHT22;10347;51.828;6.466;2023-04-29T05:29:33;11.80;99.90
20376;DHT22;10347;51.828;6.466;2023-04-29T05:31:58;11.90;99.90
20376;DHT22;10347;51.828;6.466;2023-04-29T05:34:24;11.90;99.90
20376;DHT22;10347;51.828;6.466;2023-04-29T05:36:50;11.90;99.90
20376;DHT22;10347;51.828;6.466;2023-04-29T05:39:15;11.90;99.90
20376;DHT22;10347;51.828;6.466;2023-04-29T05:41:42;11.90;99.90
20376;DHT22;10347;51.828;6.466;2023-04-29T05:44:08;11.90;99.90
20376;DHT22;10347;51.828;6.466;2023-04-29T05:46:33;11.90;99.90
20376;DHT22;10347;51.828;6.466;2023-04-29T05:48:59;11.90;99.90
20376;DHT22;10347;51.828;6.466;2023-04-29T05:51:24;11.90;99.90
20376;DHT22;10347;51.828;6.466;2023-04-29T05:53:50;11.90;99.90
20376;DHT22;10347;51.828;6.466;2023-04-29T05:56:16;11.90;99.90
20376;DHT22;10347;51.828;6.466;2023-04-29T05:58:42;11.90;99.90
20376;DHT22;10347;51.828;6.466;2023-04-29T06:01:07;11.90;99.90
20376;DHT22;10347;51.828;6.466;2023-04-29T06:03:33;12.00;99.90
20376;DHT22;10347;51.828;6.466;2023-04-29T06:05:59;12.00;99.90
20376;DHT22;10347;51.828;6.466;2023-04-29T06:08:25;12.00;99.90
20376;DHT22;10347;51.828;6.466;2023-04-29T06:10:51;12.00;99.90
20376;DHT22;10347;51.828;6.466;2023-04-29T06:13:17;12.00;99.90
20376;DHT22;10347;51.828;6.466;2023-04-29T06:15:43;12.00;99.90
20376;DHT22;10347;51.828;6.466;2023-04-29T06:18:09;12.10;99.90
20376;DHT22;10347;51.828;6.466;2023-04-29T06:20:34;12.00;99.90
20376;DHT22;10347;51.828;6.466;2023-04-29T06:23:00;12.10;99.90
20376;DHT22;10347;51.828;6.466;2023-04-29T06:25:25;12.10;99.90
20376;DHT22;10347;51.828;6.466;2023-04-29T06:27:51;12.10;99.90
20376;DHT22;10347;51.828;6.466;2023-04-29T06:30:16;12.10;99.90
20376;DHT22;10347;51.828;6.466;2023-04-29T06:32:42;12.10;99.90
20376;DHT22;10347;51.828;6.466;2023-04-29T06:35:07;12.00;99.90
20376;DHT22;10347;51.828;6.466;2023-04-29T06:37:33;12.00;99.90
20376;DHT22;10347;51.828;6.466;2023-04-29T06:39:59;12.00;99.90
20376;DHT22;10347;51.828;6.466;2023-04-29T06:42:24;12.00;99.90
20376;DHT22;10347;51.828;6.466;2023-04-29T06:44:50;12.00;99.90
20376;DHT22;10347;51.828;6.466;2023-04-29T06:47:15;12.00;99.90
20376;DHT22;10347;51.828;6.466;2023-04-29T06:49:41;12.10;99.90
20376;DHT22;10347;51.828;6.466;2023-04-29T06:52:08;12.10;99.90
20376;DHT22;10347;51.828;6.466;2023-04-29T06:54:34;12.10;99.90
20376;DHT22;10347;51.828;6.466;2023-04-29T06:56:59;12.10;99.90
20376;DHT22;10347;51.828;6.466;2023-04-29T06:59:26;12.10;99.90
20376;DHT22;10347;51.828;6.466;2023-04-29T07:01:52;12.10;99.90
20376;DHT22;10347;51.828;6.466;2023-04-29T07:04:17;12.10;99.90
20376;DHT22;10347;51.828;6.466;2023-04-29T07:06:43;12.10;99.90
20376;DHT22;10347;51.828;6.466;2023-04-29T07:09:11;12.10;99.90
20376;DHT22;10347;51.828;6.466;2023-04-29T07:11:38;12.10;99.90
20376;DHT22;10347;51.828;6.466;2023-04-29T07:14:04;12.10;99.90
20376;DHT22;10347;51.828;6.466;2023-04-29T07:16:29;12.10;99.90
20376;DHT22;10347;51.828;6.466;2023-04-29T07:18:55;12.10;99.90
20376;DHT22;10347;51.828;6.466;2023-04-29T07:21:20;12.10;99.90
20376;DHT22;10347;51.828;6.466;2023-04-29T07:23:46;12.10;99.90
20376;DHT22;10347;51.828;6.466;2023-04-29T07:26:14;12.10;99.90
20376;DHT22;10347;51.828;6.466;2023-04-29T07:28:40;12.10;99.90
20376;DHT22;10347;51.828;6.466;2023-04-29T07:31:06;12.10;99.90
20376;DHT22;10347;51.828;6.466;2023-04-29T07:33:32;12.20;99.90
20376;DHT22;10347;51.828;6.466;2023-04-29T07:35:58;12.20;99.90
20376;DHT22;10347;51.828;6.466;2023-04-29T07:38:24;12.20;99.90
20376;DHT22;10347;51.828;6.466;2023-04-29T07:40:50;12.20;99.90
20376;DHT22;10347;51.828;6.466;2023-04-29T07:43:16;12.20;99.90
20376;DHT22;10347;51.828;6.466;2023-04-29T07:45:41;12.20;99.90
20376;DHT22;10347;51.828;6.466;2023-04-29T07:48:07;12.20;99.90
20376;DHT22;10347;51.828;6.466;2023-04-29T07:50:36;12.20;99.90
20376;DHT22;10347;51.828;6.466;2023-04-29T07:53:02;12.20;99.90
20376;DHT22;10347;51.828;6.466;2023-04-29T07:55:28;12.20;99.90
20376;DHT22;10347;51.828;6.466;2023-04-29T07:57:59;12.30;99.90
20376;DHT22;10347;51.828;6.466;2023-04-29T08:00:25;12.20;99.90
20376;DHT22;10347;51.828;6.466;2023-04-29T08:02:53;12.30;99.90
20376;DHT22;10347;51.828;6.466;2023-04-29T08:05:19;12.30;99.90
20376;DHT22;10347;51.828;6.466;2023-04-29T08:07:46;12.30;99.90
20376;DHT22;10347;51.828;6.466;2023-04-29T08:10:13;12.30;99.90
20376;DHT22;10347;51.828;6.466;2023-04-29T08:12:38;12.30;99.90
20376;DHT22;10347;51.828;6.466;2023-04-29T08:15:04;12.40;99.90
20376;DHT22;10347;51.828;6.466;2023-04-29T08:17:30;12.40;99.90
20376;DHT22;10347;51.828;6.466;2023-04-29T08:19:56;12.40;99.90
20376;DHT22;10347;51.828;6.466;2023-04-29T08:22:21;12.40;99.90
20376;DHT22;10347;51.828;6.466;2023-04-29T08:24:47;12.50;99.90
20376;DHT22;10347;51.828;6.466;2023-04-29T08:27:13;12.50;99.90
20376;DHT22;10347;51.828;6.466;2023-04-29T08:29:39;12.50;99.90
20376;DHT22;10347;51.828;6.466;2023-04-29T08:32:05;12.50;99.90
20376;DHT22;10347;51.828;6.466;2023-04-29T08:34:31;12.50;99.90
20376;DHT22;10347;51.828;6.466;2023-04-29T08:36:57;12.50;99.90
20376;DHT22;10347;51.828;6.466;2023-04-29T08:39:23;12.60;99.90
20376;DHT22;10347;51.828;6.466;2023-04-29T08:41:49;12.60;99.90
20376;DHT22;10347;51.828;6.466;2023-04-29T08:44:16;12.60;99.90
20376;DHT22;10347;51.828;6.466;2023-04-29T08:46:46;12.60;99.90
20376;DHT22;10347;51.828;6.466;2023-04-29T08:49:12;12.60;99.90
20376;DHT22;10347;51.828;6.466;2023-04-29T08:51:37;12.60;99.90
20376;DHT22;10347;51.828;6.466;2023-04-29T08:54:03;12.60;99.90
20376;DHT22;10347;51.828;6.466;2023-04-29T08:56:30;12.60;99.90
20376;DHT22;10347;51.828;6.466;2023-04-29T08:58:56;12.60;99.90
20376;DHT22;10347;51.828;6.466;2023-04-29T09:01:26;12.60;99.90
20376;DHT22;10347;51.828;6.466;2023-04-29T09:04:16;12.70;99.90
20376;DHT22;10347;51.828;6.466;2023-04-29T09:06:46;12.70;99.90
20376;DHT22;10347;51.828;6.466;2023-04-29T09:09:12;12.70;99.90
20376;DHT22;10347;51.828;6.466;2023-04-29T09:11:39;12.80;99.90
20376;DHT22;10347;51.828;6.466;2023-04-29T09:14:05;12.80;99.90
20376;DHT22;10347;51.828;6.466;2023-04-29T09:16:32;12.80;99.90
20376;DHT22;10347;51.828;6.466;2023-04-29T09:18:59;12.80;99.90
20376;DHT22;10347;51.828;6.466;2023-04-29T09:21:29;12.90;99.90
20376;DHT22;10347;51.828;6.466;2023-04-29T09:24:00;12.90;99.90
20376;DHT22;10347;51.828;6.466;2023-04-29T09:26:26;12.90;99.90
20376;DHT22;10347;51.828;6.466;2023-04-29T09:29:06;13.00;99.90
20376;DHT22;10347;51.828;6.466;2023-04-29T09:31:33;13.00;99.90
20376;DHT22;10347;51.828;6.466;2023-04-29T09:33:59;13.00;99.90
20376;DHT22;10347;51.828;6.466;2023-04-29T09:36:34;13.10;99.90
20376;DHT22;10347;51.828;6.466;2023-04-29T09:39:01;13.20;99.90
20376;DHT22;10347;51.828;6.466;2023-04-29T09:41:26;13.20;99.90
20376;DHT22;10347;51.828;6.466;2023-04-29T09:44:02;13.20;99.90
20376;DHT22;10347;51.828;6.466;2023-04-29T09:46:31;13.20;99.90
20376;DHT22;10347;51.828;6.466;2023-04-29T09:48:56;13.20;99.90
20376;DHT22;10347;51.828;6.466;2023-04-29T09:51:23;13.30;99.90
20376;DHT22;10347;51.828;6.466;2023-04-29T09:53:49;13.40;99.90
20376;DHT22;10347;51.828;6.466;2023-04-29T09:56:14;13.50;99.90
20376;DHT22;10347;51.828;6.466;2023-04-29T09:58:41;13.50;99.90
20376;DHT22;10347;51.828;6.466;2023-04-29T10:01:07;13.50;99.90
20376;DHT22;10347;51.828;6.466;2023-04-29T10:03:35;13.50;99.90
20376;DHT22;10347;51.828;6.466;2023-04-29T10:06:03;13.60;99.90
20376;DHT22;10347;51.828;6.466;2023-04-29T10:08:30;13.60;99.90
20376;DHT22;10347;51.828;6.466;2023-04-29T10:11:01;13.70;99.90
20376;DHT22;10347;51.828;6.466;2023-04-29T10:13:27;13.70;99.90
20376;DHT22;10347;51.828;6.466;2023-04-29T10:16:14;13.80;99.90
20376;DHT22;10347;51.828;6.466;2023-04-29T10:18:52;13.80;99.90
20376;DHT22;10347;51.828;6.466;2023-04-29T10:21:23;13.80;99.90
20376;DHT22;10347;51.828;6.466;2023-04-29T10:23:49;13.90;99.90
20376;DHT22;10347;51.828;6.466;2023-04-29T10:26:15;14.00;99.90
20376;DHT22;10347;51.828;6.466;2023-04-29T10:28:42;14.00;99.90
20376;DHT22;10347;51.828;6.466;2023-04-29T10:31:10;14.00;99.90
20376;DHT22;10347;51.828;6.466;2023-04-29T10:33:39;14.10;99.90
20376;DHT22;10347;51.828;6.466;2023-04-29T10:36:09;14.10;99.90
20376;DHT22;10347;51.828;6.466;2023-04-29T10:38:48;14.10;99.90
20376;DHT22;10347;51.828;6.466;2023-04-29T10:41:21;14.20;99.90
20376;DHT22;10347;51.828;6.466;2023-04-29T10:43:51;14.30;99.90
20376;DHT22;10347;51.828;6.466;2023-04-29T10:48:54;14.40;99.90
20376;DHT22;10347;51.828;6.466;2023-04-29T10:51:43;14.40;99.90
20376;DHT22;10347;51.828;6.466;2023-04-29T10:54:14;14.50;99.90
20376;DHT22;10347;51.828;6.466;2023-04-29T10:56:50;14.50;99.90
20376;DHT22;10347;51.828;6.466;2023-04-29T10:59:20;14.60;99.90
20376;DHT22;10347;51.828;6.466;2023-04-29T11:01:51;14.60;99.90
20376;DHT22;10347;51.828;6.466;2023-04-29T11:04:18;14.60;99.90
20376;DHT22;10347;51.828;6.466;2023-04-29T11:09:23;14.70;99.90
20376;DHT22;10347;51.828;6.466;2023-04-29T11:16:58;14.90;99.90
20376;DHT22;10347;51.828;6.466;2023-04-29T11:19:32;14.90;99.90
20376;DHT22;10347;51.828;6.466;2023-04-29T11:22:11;14.90;99.90
20376;DHT22;10347;51.828;6.466;2023-04-29T11:24:56;14.90;99.90
20376;DHT22;10347;51.828;6.466;2023-04-29T11:27:24;14.90;99.90
20376;DHT22;10347;51.828;6.466;2023-04-29T11:29:54;15.00;99.90
20376;DHT22;10347;51.828;6.466;2023-04-29T11:32:23;15.00;99.90
20376;DHT22;10347;51.828;6.466;2023-04-29T11:34:50;15.10;99.90
20376;DHT22;10347;51.828;6.466;2023-04-29T11:37:24;15.10;99.90
20376;DHT22;10347;51.828;6.466;2023-04-29T11:39:50;15.10;99.90
20376;DHT22;10347;51.828;6.466;2023-04-29T11:42:20;15.10;99.90
20376;DHT22;10347;51.828;6.466;2023-04-29T11:44:46;15.20;99.90
20376;DHT22;10347;51.828;6.466;2023-04-29T11:47:12;15.20;99.90
20376;DHT22;10347;51.828;6.466;2023-04-29T11:49:38;15.20;99.90
20376;DHT22;10347;51.828;6.466;2023-04-29T11:52:03;15.30;99.90
20376;DHT22;10347;51.828;6.466;2023-04-29T11:54:29;15.30;99.90
20376;DHT22;10347;51.828;6.466;2023-04-29T11:56:56;15.30;99.90
20376;DHT22;10347;51.828;6.466;2023-04-29T11:59:22;15.30;99.90
20376;DHT22;10347;51.828;6.466;2023-04-29T12:01:49;15.40;99.90
20376;DHT22;10347;51.828;6.466;2023-04-29T12:04:15;15.40;99.90
20376;DHT22;10347;51.828;6.466;2023-04-29T12:06:41;15.50;99.90
20376;DHT22;10347;51.828;6.466;2023-04-29T12:09:07;15.50;99.90
20376;DHT22;10347;51.828;6.466;2023-04-29T12:11:33;15.50;99.90
20376;DHT22;10347;51.828;6.466;2023-04-29T12:13:59;15.60;99.90
20376;DHT22;10347;51.828;6.466;2023-04-29T12:16:27;15.60;99.90
20376;DHT22;10347;51.828;6.466;2023-04-29T12:18:54;15.60;99.90
20376;DHT22;10347;51.828;6.466;2023-04-29T12:21:21;15.60;99.90
20376;DHT22;10347;51.828;6.466;2023-04-29T12:23:47;15.60;99.90
20376;DHT22;10347;51.828;6.466;2023-04-29T12:26:12;15.60;99.90
20376;DHT22;10347;51.828;6.466;2023-04-29T12:28:40;15.70;99.90
20376;DHT22;10347;51.828;6.466;2023-04-29T12:31:08;15.70;99.90
20376;DHT22;10347;51.828;6.466;2023-04-29T12:33:37;15.80;99.90
20376;DHT22;10347;51.828;6.466;2023-04-29T12:36:15;15.80;99.90
20376;DHT22;10347;51.828;6.466;2023-04-29T12:38:42;15.90;99.90
20376;DHT22;10347;51.828;6.466;2023-04-29T12:41:07;15.90;99.90
20376;DHT22;10347;51.828;6.466;2023-04-29T12:43:33;16.00;99.90
20376;DHT22;10347;51.828;6.466;2023-04-29T12:46:08;16.00;99.90
20376;DHT22;10347;51.828;6.466;2023-04-29T12:48:35;16.00;99.90
20376;DHT22;10347;51.828;6.466;2023-04-29T12:51:09;16.00;99.90
20376;DHT22;10347;51.828;6.466;2023-04-29T12:53:35;16.10;99.90
20376;DHT22;10347;51.828;6.466;2023-04-29T12:56:00;16.10;99.90
20376;DHT22;10347;51.828;6.466;2023-04-29T12:58:29;16.20;99.90
20376;DHT22;10347;51.828;6.466;2023-04-29T13:00:55;16.20;99.90
20376;DHT22;10347;51.828;6.466;2023-04-29T13:03:21;16.20;99.90
20376;DHT22;10347;51.828;6.466;2023-04-29T13:05:46;16.20;99.90
20376;DHT22;10347;51.828;6.466;2023-04-29T13:08:17;16.20;99.90
20376;DHT22;10347;51.828;6.466;2023-04-29T13:10:43;16.20;99.90
20376;DHT22;10347;51.828;6.466;2023-04-29T13:13:08;16.30;99.90
20376;DHT22;10347;51.828;6.466;2023-04-29T13:15:34;16.30;99.90
20376;DHT22;10347;51.828;6.466;2023-04-29T13:18:01;16.30;99.90
20376;DHT22;10347;51.828;6.466;2023-04-29T13:20:26;16.30;99.90
20376;DHT22;10347;51.828;6.466;2023-04-29T13:22:52;16.40;99.90
20376;DHT22;10347;51.828;6.466;2023-04-29T13:25:18;16.40;99.90
20376;DHT22;10347;51.828;6.466;2023-04-29T13:27:44;16.40;99.90
20376;DHT22;10347;51.828;6.466;2023-04-29T13:30:09;16.50;99.90
20376;DHT22;10347;51.828;6.466;2023-04-29T13:32:35;16.50;99.90
20376;DHT22;10347;51.828;6.466;2023-04-29T13:35:01;16.60;99.90
20376;DHT22;10347;51.828;6.466;2023-04-29T13:37:27;16.60;99.90
20376;DHT22;10347;51.828;6.466;2023-04-29T13:39:52;16.70;99.90
20376;DHT22;10347;51.828;6.466;2023-04-29T13:42:18;16.80;99.90
20376;DHT22;10347;51.828;6.466;2023-04-29T13:44:43;16.80;99.90
20376;DHT22;10347;51.828;6.466;2023-04-29T13:47:10;16.80;99.90
20376;DHT22;10347;51.828;6.466;2023-04-29T13:49:40;16.90;99.90
20376;DHT22;10347;51.828;6.466;2023-04-29T13:52:11;16.90;99.90
20376;DHT22;10347;51.828;6.466;2023-04-29T13:54:37;16.90;99.90
20376;DHT22;10347;51.828;6.466;2023-04-29T13:57:03;16.90;99.90
20376;DHT22;10347;51.828;6.466;2023-04-29T13:59:33;16.90;99.90
20376;DHT22;10347;51.828;6.466;2023-04-29T14:01:59;17.00;99.90
20376;DHT22;10347;51.828;6.466;2023-04-29T14:04:26;17.00;99.90
20376;DHT22;10347;51.828;6.466;2023-04-29T14:06:52;17.10;99.90
20376;DHT22;10347;51.828;6.466;2023-04-29T14:09:18;17.10;99.90
20376;DHT22;10347;51.828;6.466;2023-04-29T14:11:44;17.20;99.90
20376;DHT22;10347;51.828;6.466;2023-04-29T14:14:10;17.20;99.90
20376;DHT22;10347;51.828;6.466;2023-04-29T14:16:36;17.20;99.90
20376;DHT22;10347;51.828;6.466;2023-04-29T14:19:02;17.30;99.90
20376;DHT22;10347;51.828;6.466;2023-04-29T14:21:28;17.30;99.90
20376;DHT22;10347;51.828;6.466;2023-04-29T14:23:54;17.30;99.90
20376;DHT22;10347;51.828;6.466;2023-04-29T14:26:20;17.40;99.90
20376;DHT22;10347;51.828;6.466;2023-04-29T14:28:45;17.40;99.90
20376;DHT22;10347;51.828;6.466;2023-04-29T14:31:11;17.40;99.90
20376;DHT22;10347;51.828;6.466;2023-04-29T14:33:38;17.40;99.90
20376;DHT22;10347;51.828;6.466;2023-04-29T14:36:05;17.50;99.90
20376;DHT22;10347;51.828;6.466;2023-04-29T14:38:31;17.50;99.90
20376;DHT22;10347;51.828;6.466;2023-04-29T14:40:57;17.50;99.90
20376;DHT22;10347;51.828;6.466;2023-04-29T14:43:22;17.60;99.90
20376;DHT22;10347;51.828;6.466;2023-04-29T14:45:48;17.50;99.90
20376;DHT22;10347;51.828;6.466;2023-04-29T14:48:14;17.50;99.90
20376;DHT22;10347;51.828;6.466;2023-04-29T14:50:40;17.50;99.90
20376;DHT22;10347;51.828;6.466;2023-04-29T14:53:05;17.50;99.90
20376;DHT22;10347;51.828;6.466;2023-04-29T14:55:32;17.50;99.90
20376;DHT22;10347;51.828;6.466;2023-04-29T14:57:58;17.50;99.90
20376;DHT22;10347;51.828;6.466;2023-04-29T15:00:23;17.50;99.90
20376;DHT22;10347;51.828;6.466;2023-04-29T15:02:49;17.50;99.90
20376;DHT22;10347;51.828;6.466;2023-04-29T15:05:15;17.50;99.90
20376;DHT22;10347;51.828;6.466;2023-04-29T15:07:41;17.50;99.90
20376;DHT22;10347;51.828;6.466;2023-04-29T15:10:07;17.60;99.90
20376;DHT22;10347;51.828;6.466;2023-04-29T15:12:34;17.60;99.90
20376;DHT22;10347;51.828;6.466;2023-04-29T15:14:59;17.60;99.90
20376;DHT22;10347;51.828;6.466;2023-04-29T15:17:25;17.50;99.90
20376;DHT22;10347;51.828;6.466;2023-04-29T15:19:50;17.50;99.90
20376;DHT22;10347;51.828;6.466;2023-04-29T15:22:16;17.50;99.90
20376;DHT22;10347;51.828;6.466;2023-04-29T15:24:42;17.50;99.90
20376;DHT22;10347;51.828;6.466;2023-04-29T15:27:07;17.50;99.90
20376;DHT22;10347;51.828;6.466;2023-04-29T15:29:33;17.50;99.90
20376;DHT22;10347;51.828;6.466;2023-04-29T15:32:01;17.50;99.90
20376;DHT22;10347;51.828;6.466;2023-04-29T15:34:27;17.60;99.90
20376;DHT22;10347;51.828;6.466;2023-04-29T15:36:52;17.50;99.90
20376;DHT22;10347;51.828;6.466;2023-04-29T15:39:20;17.60;99.90
20376;DHT22;10347;51.828;6.466;2023-04-29T15:41:46;17.60;99.90
20376;DHT22;10347;51.828;6.466;2023-04-29T15:44:12;17.60;99.90
20376;DHT22;10347;51.828;6.466;2023-04-29T15:46:38;17.50;99.90
20376;DHT22;10347;51.828;6.466;2023-04-29T15:49:03;17.60;99.90
20376;DHT22;10347;51.828;6.466;2023-04-29T15:51:30;17.60;99.90
20376;DHT22;10347;51.828;6.466;2023-04-29T15:53:55;17.60;99.90
20376;DHT22;10347;51.828;6.466;2023-04-29T15:56:21;17.60;99.90